CST,Max TemperatureF,Mean TemperatureF,Min TemperatureF,Max Dew PointF,MeanDew PointF,Min DewpointF,Max Humidity, Mean Humidity, Min Humidity, Max Sea Level PressureIn, Mean Sea Level PressureIn, Min Sea Level PressureIn, Max VisibilityMiles, Mean VisibilityMiles, Min VisibilityMiles, Max Wind SpeedMPH, Mean Wind SpeedMPH, Max Gust SpeedMPH,PrecipitationIn, CloudCover, Events, WindDirDegrees
2012-12-1,57,48,39,52,43,34,88,82,66,30.18,29.98,29.83,10,6,4,15,6,22,0.00,8,Rain,162
2012-12-2,55,44,33,52,44,34,100,86,63,30.08,29.95,29.83,10,6,0,14,8,20,0.00,6,Fog-Rain,257
2012-12-3,64,53,42,59,48,41,100,89,71,30.06,29.89,29.73,10,5,0,22,5,26,0.02,7,Fog-Rain,182
2012-12-4,53,40,28,41,29,16,76,62,38,30.31,30.08,29.90,10,10,10,23,11,30,0.00,0,,291
2012-12-5,35,28,21,27,19,14,80,68,55,30.44,30.36,30.24,10,10,10,10,7,,0.00,2,,10
2012-12-6,42,38,33,36,32,27,76,71,66,30.11,29.93,29.87,10,10,10,12,9,17,0.00,6,,214
2012-12-7,41,37,33,34,31,28,87,81,70,29.99,29.94,29.91,10,10,10,10,5,,0.00,6,,341
2012-12-8,37,34,32,32,30,27,100,84,70,30.13,30.01,29.91,10,10,5,14,8,18,0.00,7,Snow,22
2012-12-9,35,34,33,36,32,28,100,88,75,30.11,29.90,29.67,10,6,1,14,8,20,0.02,8,Rain-Snow,90
2012-12-10,33,30,28,34,27,21,100,85,69,29.93,29.79,29.66,10,8,3,14,7,20,0.00,7,Snow,304
2012-12-11,32,28,24,25,21,12,86,71,44,30.08,29.97,29.91,10,10,5,15,6,24,0.00,7,Snow,228
2012-12-12,44,35,26,27,24,21,80,66,39,30.23,30.17,30.08,10,10,10,23,10,28,0.00,2,,208
2012-12-13,46,37,28,27,25,19,86,67,4,30.21,30.15,30.05,10,10,10,21,10,25,0.00,0,,207
2012-12-14,44,34,24,36,29,21,93,85,61,30.21,30.12,30.02,10,9,7,7,1,,0.00,0,,113
2012-12-15,46,42,39,45,39,30,93,85,61,30.01,29.75,29.54,10,7,2,14,6,23,0.01,7,Rain,158
2012-12-16,44,40,35,45,38,32,100,90,81,29.71,29.60,29.52,10,7,2,17,6,18,0.01,8,Rain,245
2012-12-17,35,30,26,32,27,23,93,84,75,29.74,29.71,29.69,10,9,7,13,6,,0.00,8,,298
2012-12-18,35,30,26,32,27,23,100,92,81,29.96,29.73,29.64,10,5,0,10,3,,0.00,8,Snow,311
2012-12-19,33,30,26,32,28,23,100,92,86,30.06,29.96,29.82,5,4,1,10,5,,0.03,6,Rain-Snow,318
2012-12-20,39,36,32,37,33,30,100,95,87,29.88,29.46,29.14,7,3,1,25,14,34,0.71,8,Rain-Snow,31
2012-12-21,32,26,19,30,21,14,93,83,74,30.16,29.86,29.45,10,8,3,26,21,36,0.00,5,Snow,307
2012-12-22,28,20,12,18,14,7,86,78,55,30.18,30.08,29.94,10,10,10,12,7,,0.00,0,,250
2012-12-23,26,22,17,21,17,12,93,85,74,30.06,29.98,29.91,10,10,7,12,5,17,0.00,4,,326
2012-12-24,26,22,19,21,19,18,93,83,74,30.11,30.00,29.91,10,10,10,12,6,,0.00,8,,340
2012-12-25,26,20,15,23,16,12,86,81,63,30.34,30.25,30.12,10,10,10,9,7,,0.00,5,,341
2012-12-26,30,27,24,23,21,19,86,73,64,30.26,30.15,30.06,10,10,10,21,11,33,0.00,8,,22
2012-12-27,26,25,24,23,21,19,86,79,74,30.19,30.14,30.10,10,10,10,14,9,17,0.00,8,,348
2012-12-28,32,29,26,28,26,21,100,90,80,30.12,30.01,29.88,10,6,1,6,3,,0.00,8,Snow,357
2012-12-29,30,24,19,28,22,14,100,88,80,30.17,29.98,29.86,10,6,1,16,7,22,0.00,8,Snow,293
2012-12-30,30,19,10,23,14,5,92,80,63,30.29,30.16,29.98,10,9,3,14,10,17,0.00,1,Snow,227
2012-12-31,32,22,12,23,16,3,86,72,67,30.14,30.02,29.94,10,10,7,16,12,24,0.00,1,,275